createdAt,value
2022-09-11T00:01:29.561Z,149517.34
2022-09-11T00:06:34.347Z,149459.28
2022-09-11T00:11:41.899Z,149478.66
2022-09-11T00:16:49.246Z,149454.16
2022-09-11T00:21:56.295Z,149472.19
2022-09-11T00:27:01.361Z,149469.63
2022-09-11T00:32:07.509Z,149426.97
2022-09-11T00:37:12.568Z,149450.25
2022-09-11T00:42:16.708Z,149426.97
2022-09-11T00:47:22.170Z,149344.38
2022-09-11T00:52:30.392Z,149370.22
2022-09-11T00:57:41.575Z,149396.00
2022-09-11T01:02:50.963Z,149388.28
2022-09-11T01:07:57.989Z,149424.41
2022-09-11T01:13:11.700Z,149428.25
2022-09-11T01:18:27.292Z,149359.88
2022-09-11T01:23:51.348Z,149282.47
2022-09-11T01:29:03.455Z,149339.22
2022-09-11T01:34:18.075Z,149379.25
2022-09-11T01:39:26.906Z,149368.91
2022-09-11T01:44:38.946Z,149384.38
2022-09-11T01:49:51.697Z,149415.38
2022-09-11T01:55:05.744Z,149374.06
2022-09-11T02:00:13.889Z,149352.13
2022-09-11T02:05:25.423Z,149339.22
2022-09-11T02:10:38.299Z,149316.03
2022-09-11T02:15:48.798Z,149330.19
2022-09-11T02:20:56.118Z,149344.38
2022-09-11T02:26:00.697Z,149336.66
2022-09-11T02:31:08.616Z,149331.47
2022-09-11T02:36:35.834Z,149344.38
2022-09-11T02:41:53.458Z,149359.88
2022-09-11T02:47:12.604Z,149411.50
2022-09-11T02:52:30.331Z,149388.28
2022-09-11T02:57:44.274Z,149312.16
2022-09-11T03:02:51.436Z,149371.50
2022-09-11T03:07:56.217Z,149376.63
2022-09-11T03:13:00.630Z,149323.78
2022-09-11T03:18:10.872Z,149337.94
2022-09-11T03:23:15.569Z,149319.88
2022-09-11T03:28:20.276Z,149340.53
2022-09-11T03:33:28.400Z,149341.81
2022-09-11T03:38:33.652Z,149319.88
2022-09-11T03:43:39.356Z,149337.94
2022-09-11T03:48:46.720Z,149306.97
2022-09-11T03:53:51.422Z,149282.47
2022-09-11T03:58:59.069Z,149300.50
2022-09-11T04:04:06.451Z,149301.84
2022-09-11T04:09:18.171Z,149341.81
2022-09-11T04:14:25.224Z,149357.31
2022-09-11T04:19:34.807Z,149374.06
2022-09-11T04:24:39.332Z,149383.09
2022-09-11T04:29:43.804Z,149408.91
2022-09-11T04:34:50.128Z,149447.69
2022-09-11T04:39:55.387Z,149417.94
2022-09-11T04:44:59.900Z,149467.06
2022-09-11T04:50:06.137Z,149388.28
2022-09-11T04:55:11.837Z,149341.81
2022-09-11T05:00:18.084Z,149352.13
2022-09-11T05:05:25.696Z,149394.72
2022-09-11T05:10:33.668Z,149406.31
2022-09-11T05:15:38.087Z,149456.72
2022-09-11T05:20:44.607Z,149419.22
2022-09-11T05:25:49.937Z,149425.69
2022-09-11T05:30:54.992Z,149443.81
2022-09-11T05:36:06.900Z,149406.31
2022-09-11T05:41:13.131Z,149361.16
2022-09-11T05:46:19.844Z,149416.66
2022-09-11T05:51:30.824Z,149496.75
2022-09-11T05:56:37.363Z,149491.56
2022-09-11T06:01:48.279Z,149496.75
2022-09-11T06:07:00.859Z,149557.41
2022-09-11T06:12:07.156Z,149543.22
2022-09-11T06:17:12.496Z,149540.63
2022-09-11T06:22:19.797Z,149556.09
2022-09-11T06:27:25.388Z,149561.31
2022-09-11T06:32:31.022Z,149535.44
2022-09-11T06:37:38.104Z,149455.44
2022-09-11T06:42:44.605Z,149393.44
2022-09-11T06:47:51.924Z,149377.97
2022-09-11T06:52:58.509Z,149359.88
2022-09-11T06:58:06.970Z,149365.03
2022-09-11T07:03:13.302Z,149350.84
2022-09-11T07:08:24.733Z,149370.22
2022-09-11T07:13:29.648Z,149359.88
2022-09-11T07:18:36.573Z,149401.19
2022-09-11T07:23:50.707Z,149433.44
2022-09-11T07:28:57.881Z,149459.28
2022-09-11T07:34:03.800Z,149434.72
2022-09-11T07:39:12.169Z,149424.41
2022-09-11T07:44:38.181Z,149430.81
2022-09-11T07:49:42.664Z,149521.25
2022-09-11T07:54:50.740Z,149523.84
2022-09-11T07:59:56.896Z,149572.91
2022-09-11T08:05:04.010Z,149649.09
2022-09-11T08:10:26.726Z,149656.81
2022-09-11T08:15:33.281Z,149730.44
2022-09-11T08:20:39.297Z,149744.63
2022-09-11T08:25:45.919Z,149817.06
2022-09-11T08:30:52.262Z,149951.44
2022-09-11T08:35:59.390Z,150066.56
2022-09-11T08:41:15.388Z,150052.34
2022-09-11T08:46:25.584Z,150140.28
2022-09-11T08:51:32.326Z,150067.84
2022-09-11T08:56:40.763Z,150098.91
2022-09-11T09:01:55.522Z,150061.41
2022-09-11T09:07:12.400Z,150036.75
2022-09-11T09:12:28.484Z,150159.69
2022-09-11T09:17:38.804Z,150285.16
2022-09-11T09:22:49.536Z,150136.44
2022-09-11T09:28:03.456Z,149963.13
2022-09-11T09:33:25.715Z,149923.03
2022-09-11T09:38:32.633Z,149977.31
2022-09-11T09:43:50.825Z,150062.69
2022-09-11T09:48:57.036Z,150040.69
2022-09-11T09:54:03.595Z,150106.66
2022-09-11T09:59:19.694Z,150246.38
2022-09-11T10:04:27.275Z,150362.81
2022-09-11T10:09:32.417Z,150254.09
2022-09-11T10:14:52.905Z,150298.06
2022-09-11T10:20:13.367Z,150252.81
2022-09-11T10:25:20.227Z,150294.22
2022-09-11T10:30:32.359Z,150277.41
2022-09-11T10:35:38.222Z,150202.38
2022-09-11T10:40:47.491Z,150268.34
2022-09-11T10:46:06.729Z,150402.97
2022-09-11T10:51:14.132Z,150592.00
2022-09-11T10:56:19.551Z,150808.34
2022-09-11T11:01:26.446Z,151015.78
2022-09-11T11:06:49.512Z,150834.34
2022-09-11T11:12:19.415Z,150899.16
2022-09-11T11:17:34.138Z,151027.44
2022-09-11T11:23:00.222Z,150878.41
2022-09-11T11:28:23.930Z,150980.78
2022-09-11T11:34:04.556Z,151119.59
2022-09-11T11:39:19.254Z,151189.59
2022-09-11T11:44:33.911Z,151196.13
2022-09-11T11:49:53.679Z,150979.50
2022-09-11T11:55:01.681Z,150922.47
2022-09-11T12:00:12.830Z,150893.94
2022-09-11T12:05:24.832Z,150831.75
2022-09-11T12:10:31.738Z,150777.28
2022-09-11T12:15:37.140Z,150738.41
2022-09-11T12:20:45.254Z,150908.22
2022-09-11T12:25:53.984Z,150975.63
2022-09-11T12:31:02.531Z,151070.28
2022-09-11T12:36:11.657Z,151066.41
2022-09-11T12:41:17.739Z,151397.25
2022-09-11T12:47:01.815Z,151216.88
2022-09-11T12:52:20.514Z,151155.88
2022-09-11T12:57:31.216Z,151098.84
2022-09-11T13:02:39.535Z,150958.75
2022-09-11T13:07:51.644Z,151035.22
2022-09-11T13:12:57.604Z,151053.41
2022-09-11T13:18:01.881Z,150917.25
2022-09-11T13:23:19.500Z,150914.69
2022-09-11T13:28:27.316Z,150842.09
2022-09-11T13:33:33.968Z,150783.75
2022-09-11T13:38:39.966Z,150816.13
2022-09-11T13:43:47.774Z,150852.44
2022-09-11T13:48:58.211Z,150700.81
2022-09-11T13:54:11.567Z,150608.88
2022-09-11T13:59:50.657Z,150829.13
2022-09-11T14:05:02.515Z,151097.53
2022-09-11T14:10:23.048Z,150914.69
2022-09-11T14:15:38.423Z,150808.34
2022-09-11T14:20:46.760Z,150693.06
2022-09-11T14:26:20.142Z,150572.59
2022-09-11T14:31:35.784Z,150435.31
2022-09-11T14:36:44.681Z,150314.91
2022-09-11T14:41:51.219Z,150031.63
2022-09-11T14:46:57.863Z,149908.84
2022-09-11T14:52:03.533Z,149851.94
2022-09-11T14:57:18.389Z,149822.25
2022-09-11T15:02:27.235Z,149831.25
2022-09-11T15:07:31.944Z,149851.94
2022-09-11T15:12:37.980Z,149860.97
2022-09-11T15:17:42.716Z,149873.91
2022-09-11T15:22:47.395Z,149879.09
2022-09-11T15:27:54.674Z,149839.03
2022-09-11T15:32:59.770Z,149805.44
2022-09-11T15:38:05.945Z,149778.31
2022-09-11T15:43:11.765Z,149780.91
2022-09-11T15:48:17.584Z,149765.38
2022-09-11T15:53:21.772Z,149814.47
2022-09-11T15:58:28.001Z,149864.88
2022-09-11T16:03:33.671Z,149850.63
2022-09-11T16:08:40.036Z,149897.16
2022-09-11T16:13:50.234Z,149888.16
2022-09-11T16:18:55.318Z,149877.81
2022-09-11T16:24:02.148Z,149908.84
2022-09-11T16:29:12.362Z,149848.06
2022-09-11T16:34:18.047Z,149841.59
2022-09-11T16:39:22.174Z,149827.38
2022-09-11T16:44:29.553Z,149824.81
2022-09-11T16:49:50.373Z,149784.75
2022-09-11T16:54:59.069Z,149753.69
2022-09-11T17:00:07.847Z,149703.34
2022-09-11T17:05:14.573Z,149735.63
2022-09-11T17:10:19.202Z,149735.63
2022-09-11T17:15:25.745Z,149720.09
2022-09-11T17:20:30.060Z,149738.22
2022-09-11T17:25:36.067Z,149711.06
2022-09-11T17:30:41.769Z,149619.38
2022-09-11T17:35:47.343Z,149615.53
2022-09-11T17:40:57.681Z,149677.47
2022-09-11T17:46:06.003Z,149656.81
2022-09-11T17:51:12.571Z,149592.25
2022-09-11T17:56:19.447Z,149584.53
2022-09-11T18:01:26.903Z,149563.88
2022-09-11T18:06:35.475Z,149589.69
2022-09-11T18:11:40.191Z,149579.34
2022-09-11T18:16:48.327Z,149538.03
2022-09-11T18:21:53.599Z,149538.03
2022-09-11T18:27:00.936Z,149548.34
2022-09-11T18:32:09.872Z,149576.78
2022-09-11T18:37:17.577Z,149590.97
2022-09-11T18:42:22.446Z,149600.00
2022-09-11T18:47:30.970Z,149600.00
2022-09-11T18:52:36.867Z,149602.56
2022-09-11T18:57:44.821Z,149651.66
2022-09-11T19:02:57.403Z,149669.75
2022-09-11T19:08:04.529Z,149669.75
2022-09-11T19:13:08.892Z,149642.63
2022-09-11T19:18:15.281Z,149602.56
2022-09-11T19:23:19.398Z,149632.28
2022-09-11T19:28:23.465Z,149652.97
2022-09-11T19:33:31.254Z,149649.09
2022-09-11T19:38:37.792Z,149592.25
2022-09-11T19:43:45.794Z,149627.16
2022-09-11T19:48:53.570Z,149587.09
2022-09-11T19:54:00.717Z,149547.06
2022-09-11T19:59:06.448Z,149505.75
2022-09-11T20:04:14.134Z,149456.72
2022-09-11T20:09:34.173Z,149430.81
2022-09-11T20:14:42.660Z,149412.78
2022-09-11T20:19:48.790Z,149377.97
2022-09-11T20:24:53.330Z,149337.94
2022-09-11T20:29:57.563Z,149359.88
2022-09-11T20:35:03.766Z,149314.72
2022-09-11T20:40:11.756Z,149297.94
2022-09-11T20:45:17.025Z,149270.88
2022-09-11T20:50:22.783Z,149310.84
2022-09-11T20:55:27.646Z,149305.69
2022-09-11T21:00:32.697Z,149281.19
2022-09-11T21:05:38.991Z,149287.63
2022-09-11T21:10:43.308Z,149316.03
2022-09-11T21:15:49.399Z,149356.03
2022-09-11T21:20:58.322Z,149362.44
2022-09-11T21:26:03.782Z,149358.59
2022-09-11T21:31:09.621Z,149340.53
2022-09-11T21:36:16.076Z,149303.13
2022-09-11T21:41:20.807Z,149274.72
2022-09-11T21:46:26.122Z,149241.19
2022-09-11T21:51:32.118Z,149178.00
2022-09-11T21:56:36.430Z,149205.09
2022-09-11T22:01:41.211Z,149198.63
2022-09-11T22:06:47.782Z,149180.56
2022-09-11T22:11:55.742Z,149123.84
2022-09-11T22:17:04.025Z,149117.41
2022-09-11T22:22:10.442Z,149112.22
2022-09-11T22:27:14.769Z,149087.75
2022-09-11T22:32:19.064Z,149125.13
2022-09-11T22:37:24.979Z,149152.22
2022-09-11T22:42:31.442Z,149198.63
2022-09-11T22:47:36.661Z,149229.59
2022-09-11T22:52:43.290Z,149245.06
2022-09-11T22:57:47.583Z,149215.41
2022-09-11T23:02:52.128Z,149154.78
2022-09-11T23:07:57.930Z,149140.63
2022-09-11T23:13:02.969Z,149129.00
2022-09-11T23:18:07.607Z,149112.22
2022-09-11T23:23:13.812Z,149073.50
2022-09-11T23:28:18.119Z,149063.22
2022-09-11T23:33:23.192Z,149061.88
2022-09-11T23:38:29.332Z,149028.38
2022-09-11T23:43:33.836Z,149042.59
2022-09-11T23:48:38.534Z,149038.69
2022-09-11T23:53:46.228Z,149015.50
2022-09-11T23:58:50.976Z,149045.16
